sensor_id;sensor_type;location;lat;lon;timestamp;P1;durP1;ratioP1;P2;durP2;ratioP2
62574;SDS011;70119;45.638;11.714;2023-10-09T00:01:49;7.45;;;4.90;;
62574;SDS011;70119;45.638;11.714;2023-10-09T00:04:16;6.47;;;4.85;;
62574;SDS011;70119;45.638;11.714;2023-10-09T00:06:43;6.85;;;5.15;;
62574;SDS011;70119;45.638;11.714;2023-10-09T00:09:09;6.88;;;4.63;;
62574;SDS011;70119;45.638;11.714;2023-10-09T00:11:55;7.70;;;4.75;;
62574;SDS011;70119;45.638;11.714;2023-10-09T00:14:26;6.78;;;4.80;;
62574;SDS011;70119;45.638;11.714;2023-10-09T00:16:55;6.97;;;4.90;;
62574;SDS011;70119;45.638;11.714;2023-10-09T00:19:42;6.65;;;4.65;;
62574;SDS011;70119;45.638;11.714;2023-10-09T00:22:17;6.50;;;4.70;;
62574;SDS011;70119;45.638;11.714;2023-10-09T00:24:49;6.43;;;4.80;;
62574;SDS011;70119;45.638;11.714;2023-10-09T00:27:15;6.60;;;4.75;;
62574;SDS011;70119;45.638;11.714;2023-10-09T00:29:46;6.87;;;4.90;;
62574;SDS011;70119;45.638;11.714;2023-10-09T00:32:13;5.95;;;4.50;;
62574;SDS011;70119;45.638;11.714;2023-10-09T00:34:57;6.65;;;4.53;;
62574;SDS011;70119;45.638;11.714;2023-10-09T00:37:43;7.07;;;5.03;;
62574;SDS011;70119;45.638;11.714;2023-10-09T00:40:10;6.35;;;4.68;;
62574;SDS011;70119;45.638;11.714;2023-10-09T00:42:37;7.28;;;4.55;;
62574;SDS011;70119;45.638;11.714;2023-10-09T00:45:04;6.10;;;4.95;;
62574;SDS011;70119;45.638;11.714;2023-10-09T00:47:32;6.57;;;4.57;;
62574;SDS011;70119;45.638;11.714;2023-10-09T00:50:00;6.75;;;4.78;;
62574;SDS011;70119;45.638;11.714;2023-10-09T00:52:40;6.60;;;4.97;;
62574;SDS011;70119;45.638;11.714;2023-10-09T00:55:17;6.63;;;4.68;;
62574;SDS011;70119;45.638;11.714;2023-10-09T00:58:14;7.55;;;4.72;;
62574;SDS011;70119;45.638;11.714;2023-10-09T01:00:48;7.00;;;4.85;;
62574;SDS011;70119;45.638;11.714;2023-10-09T01:03:17;6.97;;;4.70;;
62574;SDS011;70119;45.638;11.714;2023-10-09T01:05:46;5.82;;;4.30;;
62574;SDS011;70119;45.638;11.714;2023-10-09T01:08:20;6.80;;;4.72;;
62574;SDS011;70119;45.638;11.714;2023-10-09T01:10:58;6.75;;;4.72;;
62574;SDS011;70119;45.638;11.714;2023-10-09T01:13:41;6.38;;;4.80;;
62574;SDS011;70119;45.638;11.714;2023-10-09T01:16:21;7.78;;;5.20;;
62574;SDS011;70119;45.638;11.714;2023-10-09T01:18:49;6.05;;;4.80;;
62574;SDS011;70119;45.638;11.714;2023-10-09T01:21:19;6.90;;;4.90;;
62574;SDS011;70119;45.638;11.714;2023-10-09T01:23:52;6.78;;;4.80;;
62574;SDS011;70119;45.638;11.714;2023-10-09T01:26:35;6.55;;;4.55;;
62574;SDS011;70119;45.638;11.714;2023-10-09T01:29:08;5.90;;;4.32;;
62574;SDS011;70119;45.638;11.714;2023-10-09T01:31:42;6.13;;;4.28;;
62574;SDS011;70119;45.638;11.714;2023-10-09T01:34:34;6.32;;;4.57;;
62574;SDS011;70119;45.638;11.714;2023-10-09T01:37:03;6.15;;;4.47;;
62574;SDS011;70119;45.638;11.714;2023-10-09T01:39:51;6.30;;;4.60;;
62574;SDS011;70119;45.638;11.714;2023-10-09T01:42:18;6.43;;;4.75;;
62574;SDS011;70119;45.638;11.714;2023-10-09T01:44:57;8.32;;;5.07;;
62574;SDS011;70119;45.638;11.714;2023-10-09T01:47:41;7.85;;;4.70;;
62574;SDS011;70119;45.638;11.714;2023-10-09T01:50:16;6.70;;;4.80;;
62574;SDS011;70119;45.638;11.714;2023-10-09T01:53:00;6.13;;;4.55;;
62574;SDS011;70119;45.638;11.714;2023-10-09T01:55:28;6.15;;;4.40;;
62574;SDS011;70119;45.638;11.714;2023-10-09T01:58:00;7.15;;;4.82;;
62574;SDS011;70119;45.638;11.714;2023-10-09T02:00:45;7.15;;;4.88;;
62574;SDS011;70119;45.638;11.714;2023-10-09T02:03:15;6.93;;;4.75;;
62574;SDS011;70119;45.638;11.714;2023-10-09T02:05:42;7.60;;;4.70;;
62574;SDS011;70119;45.638;11.714;2023-10-09T02:08:08;6.28;;;4.50;;
62574;SDS011;70119;45.638;11.714;2023-10-09T02:10:35;6.70;;;4.78;;
62574;SDS011;70119;45.638;11.714;2023-10-09T02:13:04;7.13;;;4.95;;
62574;SDS011;70119;45.638;11.714;2023-10-09T02:15:38;6.90;;;4.60;;
62574;SDS011;70119;45.638;11.714;2023-10-09T02:18:11;6.60;;;4.78;;
62574;SDS011;70119;45.638;11.714;2023-10-09T02:20:58;6.97;;;4.90;;
62574;SDS011;70119;45.638;11.714;2023-10-09T02:23:31;6.22;;;4.60;;
62574;SDS011;70119;45.638;11.714;2023-10-09T02:26:10;6.60;;;4.80;;
62574;SDS011;70119;45.638;11.714;2023-10-09T02:28:58;6.68;;;4.75;;
62574;SDS011;70119;45.638;11.714;2023-10-09T02:31:24;6.55;;;4.70;;
62574;SDS011;70119;45.638;11.714;2023-10-09T02:34:00;6.13;;;4.68;;
62574;SDS011;70119;45.638;11.714;2023-10-09T02:36:34;6.60;;;4.60;;
62574;SDS011;70119;45.638;11.714;2023-10-09T02:39:14;7.38;;;4.72;;
62574;SDS011;70119;45.638;11.714;2023-10-09T02:41:58;7.18;;;5.07;;
62574;SDS011;70119;45.638;11.714;2023-10-09T02:44:32;6.68;;;4.65;;
62574;SDS011;70119;45.638;11.714;2023-10-09T02:47:04;6.78;;;4.80;;
62574;SDS011;70119;45.638;11.714;2023-10-09T02:49:30;7.90;;;4.78;;
62574;SDS011;70119;45.638;11.714;2023-10-09T02:51:56;7.05;;;4.88;;
62574;SDS011;70119;45.638;11.714;2023-10-09T02:54:23;7.00;;;4.63;;
62574;SDS011;70119;45.638;11.714;2023-10-09T02:56:49;5.97;;;4.60;;
62574;SDS011;70119;45.638;11.714;2023-10-09T02:59:42;6.72;;;4.68;;
62574;SDS011;70119;45.638;11.714;2023-10-09T03:02:10;7.13;;;5.07;;
62574;SDS011;70119;45.638;11.714;2023-10-09T03:04:36;6.30;;;4.90;;
62574;SDS011;70119;45.638;11.714;2023-10-09T03:07:04;6.57;;;4.88;;
62574;SDS011;70119;45.638;11.714;2023-10-09T03:09:31;7.10;;;4.63;;
62574;SDS011;70119;45.638;11.714;2023-10-09T03:11:58;7.85;;;4.82;;
62574;SDS011;70119;45.638;11.714;2023-10-09T03:14:27;7.13;;;4.78;;
62574;SDS011;70119;45.638;11.714;2023-10-09T03:16:54;6.72;;;4.78;;
62574;SDS011;70119;45.638;11.714;2023-10-09T03:19:31;6.30;;;4.70;;
62574;SDS011;70119;45.638;11.714;2023-10-09T03:22:11;7.15;;;4.93;;
62574;SDS011;70119;45.638;11.714;2023-10-09T03:24:37;6.40;;;4.43;;
62574;SDS011;70119;45.638;11.714;2023-10-09T03:27:06;6.40;;;4.85;;
62574;SDS011;70119;45.638;11.714;2023-10-09T03:29:32;7.07;;;4.78;;
62574;SDS011;70119;45.638;11.714;2023-10-09T03:31:58;7.95;;;5.20;;
62574;SDS011;70119;45.638;11.714;2023-10-09T03:34:25;6.95;;;4.53;;
62574;SDS011;70119;45.638;11.714;2023-10-09T03:36:51;7.40;;;4.70;;
62574;SDS011;70119;45.638;11.714;2023-10-09T03:39:29;6.65;;;4.80;;
62574;SDS011;70119;45.638;11.714;2023-10-09T03:41:59;7.35;;;4.90;;
62574;SDS011;70119;45.638;11.714;2023-10-09T03:44:29;6.28;;;4.60;;
62574;SDS011;70119;45.638;11.714;2023-10-09T03:46:58;7.57;;;4.60;;
62574;SDS011;70119;45.638;11.714;2023-10-09T03:49:24;6.88;;;4.35;;
62574;SDS011;70119;45.638;11.714;2023-10-09T03:51:51;6.70;;;4.68;;
62574;SDS011;70119;45.638;11.714;2023-10-09T03:54:17;6.82;;;4.80;;
62574;SDS011;70119;45.638;11.714;2023-10-09T03:56:47;7.20;;;4.70;;
62574;SDS011;70119;45.638;11.714;2023-10-09T03:59:24;7.00;;;5.07;;
62574;SDS011;70119;45.638;11.714;2023-10-09T04:01:55;6.70;;;4.68;;
62574;SDS011;70119;45.638;11.714;2023-10-09T04:04:23;8.13;;;4.72;;
62574;SDS011;70119;45.638;11.714;2023-10-09T04:06:50;7.90;;;5.18;;
62574;SDS011;70119;45.638;11.714;2023-10-09T04:09:19;7.00;;;4.47;;
62574;SDS011;70119;45.638;11.714;2023-10-09T04:11:48;5.90;;;4.35;;
62574;SDS011;70119;45.638;11.714;2023-10-09T04:14:36;6.40;;;4.80;;
62574;SDS011;70119;45.638;11.714;2023-10-09T04:17:22;6.57;;;4.85;;
62574;SDS011;70119;45.638;11.714;2023-10-09T04:19:55;5.80;;;4.45;;
62574;SDS011;70119;45.638;11.714;2023-10-09T04:22:40;6.53;;;4.55;;
62574;SDS011;70119;45.638;11.714;2023-10-09T04:25:26;6.95;;;4.70;;
62574;SDS011;70119;45.638;11.714;2023-10-09T04:27:54;6.72;;;4.90;;
62574;SDS011;70119;45.638;11.714;2023-10-09T04:30:42;7.82;;;4.95;;
62574;SDS011;70119;45.638;11.714;2023-10-09T04:33:08;6.35;;;4.75;;
62574;SDS011;70119;45.638;11.714;2023-10-09T04:36:14;7.00;;;4.85;;
62574;SDS011;70119;45.638;11.714;2023-10-09T04:38:52;7.05;;;4.85;;
62574;SDS011;70119;45.638;11.714;2023-10-09T04:41:41;6.70;;;4.35;;
62574;SDS011;70119;45.638;11.714;2023-10-09T04:44:07;6.55;;;4.82;;
62574;SDS011;70119;45.638;11.714;2023-10-09T04:46:50;6.45;;;4.78;;
62574;SDS011;70119;45.638;11.714;2023-10-09T04:49:34;6.20;;;4.60;;
62574;SDS011;70119;45.638;11.714;2023-10-09T04:52:14;6.57;;;4.70;;
62574;SDS011;70119;45.638;11.714;2023-10-09T04:55:03;6.95;;;4.75;;
62574;SDS011;70119;45.638;11.714;2023-10-09T04:57:43;6.72;;;4.80;;
62574;SDS011;70119;45.638;11.714;2023-10-09T05:00:13;6.03;;;4.50;;
62574;SDS011;70119;45.638;11.714;2023-10-09T05:02:50;6.20;;;4.65;;
62574;SDS011;70119;45.638;11.714;2023-10-09T05:05:24;7.15;;;5.05;;
62574;SDS011;70119;45.638;11.714;2023-10-09T05:08:07;7.00;;;4.88;;
62574;SDS011;70119;45.638;11.714;2023-10-09T05:11:01;8.85;;;4.63;;
62574;SDS011;70119;45.638;11.714;2023-10-09T05:13:29;6.82;;;4.50;;
62574;SDS011;70119;45.638;11.714;2023-10-09T05:16:22;6.70;;;4.72;;
62574;SDS011;70119;45.638;11.714;2023-10-09T05:18:51;6.82;;;4.50;;
62574;SDS011;70119;45.638;11.714;2023-10-09T05:21:22;7.43;;;4.70;;
62574;SDS011;70119;45.638;11.714;2023-10-09T05:23:54;6.30;;;4.70;;
62574;SDS011;70119;45.638;11.714;2023-10-09T05:26:47;6.40;;;4.60;;
62574;SDS011;70119;45.638;11.714;2023-10-09T05:29:15;6.05;;;4.45;;
62574;SDS011;70119;45.638;11.714;2023-10-09T05:31:49;6.50;;;4.60;;
62574;SDS011;70119;45.638;11.714;2023-10-09T05:34:21;7.13;;;4.60;;
62574;SDS011;70119;45.638;11.714;2023-10-09T05:36:48;6.90;;;4.60;;
62574;SDS011;70119;45.638;11.714;2023-10-09T05:39:14;6.95;;;4.90;;
62574;SDS011;70119;45.638;11.714;2023-10-09T05:41:47;7.07;;;5.05;;
62574;SDS011;70119;45.638;11.714;2023-10-09T05:44:25;6.30;;;4.60;;
62574;SDS011;70119;45.638;11.714;2023-10-09T05:47:09;7.10;;;4.82;;
62574;SDS011;70119;45.638;11.714;2023-10-09T05:49:53;6.30;;;4.40;;
62574;SDS011;70119;45.638;11.714;2023-10-09T05:52:42;5.45;;;4.28;;
62574;SDS011;70119;45.638;11.714;2023-10-09T05:55:28;6.43;;;4.53;;
62574;SDS011;70119;45.638;11.714;2023-10-09T05:58:13;6.25;;;4.50;;
62574;SDS011;70119;45.638;11.714;2023-10-09T06:00:58;6.75;;;4.30;;
62574;SDS011;70119;45.638;11.714;2023-10-09T06:03:42;5.50;;;4.18;;
62574;SDS011;70119;45.638;11.714;2023-10-09T06:06:16;6.10;;;3.95;;
62574;SDS011;70119;45.638;11.714;2023-10-09T06:09:04;6.55;;;4.30;;
62574;SDS011;70119;45.638;11.714;2023-10-09T06:11:40;7.45;;;4.88;;
62574;SDS011;70119;45.638;11.714;2023-10-09T06:14:15;5.90;;;4.45;;
62574;SDS011;70119;45.638;11.714;2023-10-09T06:16:50;7.80;;;4.50;;
62574;SDS011;70119;45.638;11.714;2023-10-09T06:19:40;6.18;;;4.15;;
62574;SDS011;70119;45.638;11.714;2023-10-09T06:22:09;6.47;;;4.30;;
62574;SDS011;70119;45.638;11.714;2023-10-09T06:24:54;7.57;;;4.40;;
62574;SDS011;70119;45.638;11.714;2023-10-09T06:27:22;6.20;;;4.47;;
62574;SDS011;70119;45.638;11.714;2023-10-09T06:29:57;6.95;;;4.20;;
62574;SDS011;70119;45.638;11.714;2023-10-09T06:32:43;6.82;;;4.55;;
62574;SDS011;70119;45.638;11.714;2023-10-09T06:35:16;6.25;;;4.40;;
62574;SDS011;70119;45.638;11.714;2023-10-09T06:37:47;6.60;;;4.60;;
62574;SDS011;70119;45.638;11.714;2023-10-09T06:43:13;13.18;;;4.50;;
62574;SDS011;70119;45.638;11.714;2023-10-09T06:45:51;5.53;;;3.95;;
62574;SDS011;70119;45.638;11.714;2023-10-09T06:48:43;6.05;;;4.07;;
62574;SDS011;70119;45.638;11.714;2023-10-09T06:51:14;6.43;;;3.92;;
62574;SDS011;70119;45.638;11.714;2023-10-09T06:53:52;6.20;;;4.00;;
62574;SDS011;70119;45.638;11.714;2023-10-09T06:56:18;6.35;;;4.28;;
62574;SDS011;70119;45.638;11.714;2023-10-09T06:58:54;5.50;;;3.75;;
62574;SDS011;70119;45.638;11.714;2023-10-09T07:01:41;5.70;;;3.85;;
62574;SDS011;70119;45.638;11.714;2023-10-09T07:04:34;6.80;;;4.55;;
62574;SDS011;70119;45.638;11.714;2023-10-09T07:07:00;6.63;;;4.50;;
62574;SDS011;70119;45.638;11.714;2023-10-09T07:09:32;8.55;;;4.78;;
62574;SDS011;70119;45.638;11.714;2023-10-09T07:12:10;7.18;;;4.65;;
62574;SDS011;70119;45.638;11.714;2023-10-09T07:14:45;6.38;;;4.18;;
62574;SDS011;70119;45.638;11.714;2023-10-09T07:17:12;7.57;;;4.80;;
62574;SDS011;70119;45.638;11.714;2023-10-09T07:19:47;6.82;;;4.60;;
62574;SDS011;70119;45.638;11.714;2023-10-09T07:22:14;7.28;;;4.88;;
62574;SDS011;70119;45.638;11.714;2023-10-09T07:24:47;6.63;;;4.80;;
62574;SDS011;70119;45.638;11.714;2023-10-09T07:27:24;8.75;;;5.13;;
62574;SDS011;70119;45.638;11.714;2023-10-09T07:30:10;7.18;;;4.85;;
62574;SDS011;70119;45.638;11.714;2023-10-09T07:33:02;6.63;;;4.78;;
62574;SDS011;70119;45.638;11.714;2023-10-09T07:35:35;9.27;;;5.50;;
62574;SDS011;70119;45.638;11.714;2023-10-09T07:38:11;8.18;;;5.57;;
62574;SDS011;70119;45.638;11.714;2023-10-09T07:41:00;9.68;;;6.05;;
62574;SDS011;70119;45.638;11.714;2023-10-09T07:46:04;8.75;;;5.70;;
62574;SDS011;70119;45.638;11.714;2023-10-09T07:48:49;7.82;;;5.40;;
62574;SDS011;70119;45.638;11.714;2023-10-09T07:51:18;9.20;;;5.57;;
62574;SDS011;70119;45.638;11.714;2023-10-09T07:53:57;9.70;;;5.90;;
62574;SDS011;70119;45.638;11.714;2023-10-09T07:56:32;10.40;;;6.20;;
62574;SDS011;70119;45.638;11.714;2023-10-09T07:59:09;10.00;;;6.10;;
62574;SDS011;70119;45.638;11.714;2023-10-09T08:01:39;9.38;;;6.00;;
62574;SDS011;70119;45.638;11.714;2023-10-09T08:04:17;7.72;;;5.53;;
62574;SDS011;70119;45.638;11.714;2023-10-09T08:07:02;8.63;;;5.38;;
62574;SDS011;70119;45.638;11.714;2023-10-09T08:09:32;8.48;;;5.93;;
62574;SDS011;70119;45.638;11.714;2023-10-09T08:15:04;10.30;;;6.07;;
62574;SDS011;70119;45.638;11.714;2023-10-09T08:17:57;9.80;;;6.03;;
62574;SDS011;70119;45.638;11.714;2023-10-09T08:20:35;9.60;;;5.75;;
62574;SDS011;70119;45.638;11.714;2023-10-09T08:23:20;8.45;;;5.78;;
62574;SDS011;70119;45.638;11.714;2023-10-09T08:26:04;9.48;;;5.88;;
62574;SDS011;70119;45.638;11.714;2023-10-09T08:28:42;9.13;;;5.95;;
62574;SDS011;70119;45.638;11.714;2023-10-09T08:33:58;9.27;;;6.10;;
62574;SDS011;70119;45.638;11.714;2023-10-09T08:36:26;9.38;;;5.80;;
62574;SDS011;70119;45.638;11.714;2023-10-09T08:39:02;8.32;;;5.75;;
62574;SDS011;70119;45.638;11.714;2023-10-09T08:41:42;8.85;;;6.07;;
62574;SDS011;70119;45.638;11.714;2023-10-09T08:44:08;9.13;;;6.20;;
62574;SDS011;70119;45.638;11.714;2023-10-09T08:46:40;10.10;;;6.05;;
62574;SDS011;70119;45.638;11.714;2023-10-09T08:49:08;9.45;;;6.05;;
62574;SDS011;70119;45.638;11.714;2023-10-09T08:51:35;11.93;;;6.15;;
62574;SDS011;70119;45.638;11.714;2023-10-09T08:54:02;8.35;;;5.80;;
62574;SDS011;70119;45.638;11.714;2023-10-09T08:56:29;12.95;;;6.68;;
62574;SDS011;70119;45.638;11.714;2023-10-09T08:58:56;10.43;;;6.47;;
62574;SDS011;70119;45.638;11.714;2023-10-09T09:01:23;9.10;;;6.03;;
62574;SDS011;70119;45.638;11.714;2023-10-09T09:03:50;10.23;;;6.32;;
62574;SDS011;70119;45.638;11.714;2023-10-09T09:06:20;8.25;;;5.90;;
62574;SDS011;70119;45.638;11.714;2023-10-09T09:08:49;10.45;;;5.70;;
62574;SDS011;70119;45.638;11.714;2023-10-09T09:11:19;9.90;;;6.13;;
62574;SDS011;70119;45.638;11.714;2023-10-09T09:16:28;9.15;;;6.10;;
62574;SDS011;70119;45.638;11.714;2023-10-09T09:18:57;11.55;;;6.55;;
62574;SDS011;70119;45.638;11.714;2023-10-09T09:21:29;9.13;;;6.60;;
62574;SDS011;70119;45.638;11.714;2023-10-09T09:24:06;10.18;;;6.47;;
62574;SDS011;70119;45.638;11.714;2023-10-09T09:26:55;10.82;;;6.70;;
62574;SDS011;70119;45.638;11.714;2023-10-09T09:32:07;10.90;;;6.68;;
62574;SDS011;70119;45.638;11.714;2023-10-09T09:37:21;11.52;;;7.32;;
62574;SDS011;70119;45.638;11.714;2023-10-09T09:39:58;10.45;;;6.60;;
62574;SDS011;70119;45.638;11.714;2023-10-09T09:42:43;9.68;;;6.47;;
62574;SDS011;70119;45.638;11.714;2023-10-09T09:45:15;11.63;;;7.07;;
62574;SDS011;70119;45.638;11.714;2023-10-09T09:47:49;12.10;;;7.78;;
62574;SDS011;70119;45.638;11.714;2023-10-09T09:50:18;12.18;;;7.95;;
62574;SDS011;70119;45.638;11.714;2023-10-09T09:52:51;14.00;;;8.93;;
62574;SDS011;70119;45.638;11.714;2023-10-09T09:55:19;15.55;;;8.52;;
62574;SDS011;70119;45.638;11.714;2023-10-09T09:57:48;11.52;;;8.05;;
62574;SDS011;70119;45.638;11.714;2023-10-09T10:00:20;11.27;;;7.60;;
62574;SDS011;70119;45.638;11.714;2023-10-09T10:03:18;12.35;;;7.82;;
62574;SDS011;70119;45.638;11.714;2023-10-09T10:05:48;12.00;;;8.05;;
62574;SDS011;70119;45.638;11.714;2023-10-09T10:08:18;12.75;;;7.55;;
62574;SDS011;70119;45.638;11.714;2023-10-09T10:10:49;11.27;;;8.13;;
62574;SDS011;70119;45.638;11.714;2023-10-09T10:13:17;11.48;;;7.85;;
62574;SDS011;70119;45.638;11.714;2023-10-09T10:16:07;12.32;;;8.07;;
62574;SDS011;70119;45.638;11.714;2023-10-09T10:18:58;15.07;;;8.40;;
62574;SDS011;70119;45.638;11.714;2023-10-09T10:21:36;11.65;;;8.25;;
62574;SDS011;70119;45.638;11.714;2023-10-09T10:24:59;13.13;;;8.32;;
62574;SDS011;70119;45.638;11.714;2023-10-09T10:27:16;13.25;;;8.43;;
62574;SDS011;70119;45.638;11.714;2023-10-09T10:35:19;12.30;;;8.30;;
62574;SDS011;70119;45.638;11.714;2023-10-09T10:37:57;12.98;;;8.52;;
62574;SDS011;70119;45.638;11.714;2023-10-09T10:40:40;13.63;;;8.65;;
62574;SDS011;70119;45.638;11.714;2023-10-09T10:43:17;11.98;;;8.57;;
62574;SDS011;70119;45.638;11.714;2023-10-09T10:46:02;14.60;;;8.90;;
62574;SDS011;70119;45.638;11.714;2023-10-09T10:48:47;13.02;;;9.10;;
62574;SDS011;70119;45.638;11.714;2023-10-09T10:51:14;14.55;;;8.75;;
62574;SDS011;70119;45.638;11.714;2023-10-09T10:53:52;15.35;;;8.90;;
62574;SDS011;70119;45.638;11.714;2023-10-09T10:56:25;12.55;;;8.50;;
62574;SDS011;70119;45.638;11.714;2023-10-09T10:59:02;13.75;;;9.02;;
62574;SDS011;70119;45.638;11.714;2023-10-09T11:01:31;11.93;;;8.43;;
62574;SDS011;70119;45.638;11.714;2023-10-09T11:04:27;12.68;;;8.55;;
62574;SDS011;70119;45.638;11.714;2023-10-09T11:06:57;13.30;;;8.98;;
62574;SDS011;70119;45.638;11.714;2023-10-09T11:09:48;13.20;;;9.25;;
62574;SDS011;70119;45.638;11.714;2023-10-09T11:12:43;12.55;;;8.70;;
62574;SDS011;70119;45.638;11.714;2023-10-09T11:15:30;17.13;;;9.40;;
62574;SDS011;70119;45.638;11.714;2023-10-09T11:18:09;13.63;;;9.30;;
62574;SDS011;70119;45.638;11.714;2023-10-09T11:20:45;13.85;;;9.23;;
62574;SDS011;70119;45.638;11.714;2023-10-09T11:23:27;14.70;;;9.75;;
62574;SDS011;70119;45.638;11.714;2023-10-09T11:25:59;15.18;;;9.02;;
62574;SDS011;70119;45.638;11.714;2023-10-09T11:34:28;14.40;;;9.88;;
62574;SDS011;70119;45.638;11.714;2023-10-09T11:36:57;14.55;;;10.13;;
62574;SDS011;70119;45.638;11.714;2023-10-09T11:39:31;14.32;;;10.07;;
62574;SDS011;70119;45.638;11.714;2023-10-09T11:42:07;13.95;;;9.43;;
62574;SDS011;70119;45.638;11.714;2023-10-09T11:44:37;12.65;;;9.20;;
62574;SDS011;70119;45.638;11.714;2023-10-09T11:47:11;15.40;;;9.90;;
62574;SDS011;70119;45.638;11.714;2023-10-09T11:49:56;13.50;;;9.27;;
62574;SDS011;70119;45.638;11.714;2023-10-09T11:52:28;13.65;;;9.90;;
62574;SDS011;70119;45.638;11.714;2023-10-09T11:54:57;16.17;;;9.52;;
62574;SDS011;70119;45.638;11.714;2023-10-09T11:57:24;14.65;;;9.32;;
62574;SDS011;70119;45.638;11.714;2023-10-09T12:00:00;14.23;;;9.27;;
62574;SDS011;70119;45.638;11.714;2023-10-09T12:02:35;15.43;;;9.80;;
62574;SDS011;70119;45.638;11.714;2023-10-09T12:05:09;14.63;;;9.63;;
62574;SDS011;70119;45.638;11.714;2023-10-09T12:07:42;15.38;;;9.52;;
62574;SDS011;70119;45.638;11.714;2023-10-09T12:10:11;14.23;;;9.57;;
62574;SDS011;70119;45.638;11.714;2023-10-09T12:12:43;15.55;;;9.63;;
62574;SDS011;70119;45.638;11.714;2023-10-09T12:15:12;14.32;;;9.30;;
62574;SDS011;70119;45.638;11.714;2023-10-09T12:17:43;14.70;;;9.52;;
62574;SDS011;70119;45.638;11.714;2023-10-09T12:20:12;15.57;;;9.95;;
62574;SDS011;70119;45.638;11.714;2023-10-09T12:23:00;14.48;;;9.63;;
62574;SDS011;70119;45.638;11.714;2023-10-09T12:25:29;15.25;;;10.32;;
62574;SDS011;70119;45.638;11.714;2023-10-09T12:28:00;15.02;;;9.43;;
62574;SDS011;70119;45.638;11.714;2023-10-09T12:30:30;14.82;;;9.70;;
62574;SDS011;70119;45.638;11.714;2023-10-09T12:33:04;14.85;;;9.52;;
62574;SDS011;70119;45.638;11.714;2023-10-09T12:35:36;14.10;;;9.10;;
62574;SDS011;70119;45.638;11.714;2023-10-09T12:38:03;13.53;;;9.47;;
62574;SDS011;70119;45.638;11.714;2023-10-09T12:40:33;14.55;;;9.15;;
62574;SDS011;70119;45.638;11.714;2023-10-09T12:43:00;15.38;;;9.45;;
62574;SDS011;70119;45.638;11.714;2023-10-09T12:45:26;15.65;;;9.77;;
62574;SDS011;70119;45.638;11.714;2023-10-09T12:47:55;12.90;;;8.57;;
62574;SDS011;70119;45.638;11.714;2023-10-09T12:50:25;15.60;;;9.00;;
62574;SDS011;70119;45.638;11.714;2023-10-09T12:52:54;13.45;;;8.68;;
62574;SDS011;70119;45.638;11.714;2023-10-09T12:55:21;13.52;;;9.20;;
62574;SDS011;70119;45.638;11.714;2023-10-09T12:57:57;14.40;;;9.10;;
62574;SDS011;70119;45.638;11.714;2023-10-09T13:00:26;12.93;;;8.73;;
62574;SDS011;70119;45.638;11.714;2023-10-09T13:02:57;12.55;;;8.65;;
62574;SDS011;70119;45.638;11.714;2023-10-09T13:05:26;12.25;;;8.00;;
62574;SDS011;70119;45.638;11.714;2023-10-09T13:07:52;11.35;;;8.23;;
62574;SDS011;70119;45.638;11.714;2023-10-09T13:10:21;13.95;;;9.05;;
62574;SDS011;70119;45.638;11.714;2023-10-09T13:12:49;11.07;;;8.13;;
62574;SDS011;70119;45.638;11.714;2023-10-09T13:15:20;11.48;;;8.05;;
62574;SDS011;70119;45.638;11.714;2023-10-09T13:17:46;12.48;;;8.43;;
62574;SDS011;70119;45.638;11.714;2023-10-09T13:20:12;13.15;;;8.60;;
62574;SDS011;70119;45.638;11.714;2023-10-09T13:22:38;13.25;;;8.20;;
62574;SDS011;70119;45.638;11.714;2023-10-09T13:25:06;12.98;;;8.82;;
62574;SDS011;70119;45.638;11.714;2023-10-09T13:27:40;11.07;;;7.68;;
62574;SDS011;70119;45.638;11.714;2023-10-09T13:30:18;12.23;;;8.30;;
62574;SDS011;70119;45.638;11.714;2023-10-09T13:32:51;11.52;;;7.93;;
62574;SDS011;70119;45.638;11.714;2023-10-09T13:35:17;11.52;;;8.10;;
62574;SDS011;70119;45.638;11.714;2023-10-09T13:37:44;11.75;;;7.88;;
62574;SDS011;70119;45.638;11.714;2023-10-09T13:40:19;13.43;;;8.10;;
62574;SDS011;70119;45.638;11.714;2023-10-09T13:42:52;11.30;;;8.07;;
62574;SDS011;70119;45.638;11.714;2023-10-09T13:45:24;11.70;;;8.02;;
62574;SDS011;70119;45.638;11.714;2023-10-09T13:47:53;11.65;;;7.97;;
62574;SDS011;70119;45.638;11.714;2023-10-09T13:50:25;11.25;;;7.60;;
62574;SDS011;70119;45.638;11.714;2023-10-09T13:52:58;11.48;;;7.85;;
62574;SDS011;70119;45.638;11.714;2023-10-09T13:55:24;11.65;;;7.85;;
62574;SDS011;70119;45.638;11.714;2023-10-09T13:57:57;10.85;;;7.63;;
62574;SDS011;70119;45.638;11.714;2023-10-09T14:00:23;11.52;;;7.80;;
62574;SDS011;70119;45.638;11.714;2023-10-09T14:02:59;12.40;;;7.35;;
62574;SDS011;70119;45.638;11.714;2023-10-09T14:05:28;12.00;;;7.82;;
62574;SDS011;70119;45.638;11.714;2023-10-09T14:07:54;11.32;;;6.85;;
62574;SDS011;70119;45.638;11.714;2023-10-09T14:10:25;11.32;;;7.75;;
62574;SDS011;70119;45.638;11.714;2023-10-09T14:12:55;9.40;;;7.13;;
62574;SDS011;70119;45.638;11.714;2023-10-09T14:15:22;12.05;;;7.55;;
62574;SDS011;70119;45.638;11.714;2023-10-09T14:17:48;10.25;;;7.32;;
62574;SDS011;70119;45.638;11.714;2023-10-09T14:20:21;11.43;;;7.90;;
62574;SDS011;70119;45.638;11.714;2023-10-09T14:23:13;10.32;;;6.93;;
62574;SDS011;70119;45.638;11.714;2023-10-09T14:25:46;9.93;;;6.93;;
62574;SDS011;70119;45.638;11.714;2023-10-09T14:28:14;11.32;;;7.50;;
62574;SDS011;70119;45.638;11.714;2023-10-09T14:30:44;11.40;;;7.72;;
62574;SDS011;70119;45.638;11.714;2023-10-09T14:33:14;10.77;;;7.25;;
62574;SDS011;70119;45.638;11.714;2023-10-09T14:35:47;10.18;;;7.03;;
62574;SDS011;70119;45.638;11.714;2023-10-09T14:38:13;10.45;;;7.45;;
62574;SDS011;70119;45.638;11.714;2023-10-09T14:40:46;10.32;;;6.97;;
62574;SDS011;70119;45.638;11.714;2023-10-09T14:43:13;10.45;;;7.40;;
62574;SDS011;70119;45.638;11.714;2023-10-09T14:45:45;11.48;;;7.35;;
62574;SDS011;70119;45.638;11.714;2023-10-09T14:48:14;9.48;;;6.97;;
62574;SDS011;70119;45.638;11.714;2023-10-09T14:50:48;10.20;;;6.90;;
62574;SDS011;70119;45.638;11.714;2023-10-09T14:53:18;10.63;;;7.25;;
62574;SDS011;70119;45.638;11.714;2023-10-09T14:55:46;10.70;;;7.47;;
62574;SDS011;70119;45.638;11.714;2023-10-09T14:58:19;10.95;;;7.10;;
62574;SDS011;70119;45.638;11.714;2023-10-09T15:00:44;11.30;;;7.07;;
62574;SDS011;70119;45.638;11.714;2023-10-09T15:03:13;10.57;;;7.05;;
62574;SDS011;70119;45.638;11.714;2023-10-09T15:05:42;10.15;;;7.22;;
62574;SDS011;70119;45.638;11.714;2023-10-09T15:08:09;10.35;;;6.90;;
62574;SDS011;70119;45.638;11.714;2023-10-09T15:10:43;13.50;;;7.30;;
62574;SDS011;70119;45.638;11.714;2023-10-09T15:13:13;9.65;;;7.07;;
62574;SDS011;70119;45.638;11.714;2023-10-09T15:15:44;9.80;;;6.95;;
62574;SDS011;70119;45.638;11.714;2023-10-09T15:18:11;11.00;;;7.03;;
62574;SDS011;70119;45.638;11.714;2023-10-09T15:20:37;10.50;;;6.78;;
62574;SDS011;70119;45.638;11.714;2023-10-09T15:23:09;9.73;;;6.90;;
62574;SDS011;70119;45.638;11.714;2023-10-09T15:25:35;9.65;;;6.68;;
62574;SDS011;70119;45.638;11.714;2023-10-09T15:28:04;9.85;;;6.90;;
62574;SDS011;70119;45.638;11.714;2023-10-09T15:30:33;11.63;;;7.10;;
62574;SDS011;70119;45.638;11.714;2023-10-09T15:32:59;11.80;;;7.60;;
62574;SDS011;70119;45.638;11.714;2023-10-09T15:35:26;11.32;;;7.28;;
62574;SDS011;70119;45.638;11.714;2023-10-09T15:37:54;9.93;;;7.00;;
62574;SDS011;70119;45.638;11.714;2023-10-09T15:40:19;9.70;;;6.88;;